Time;durP1;ratioP1;P1;durP2;ratioP2;P2;SDS_P1;SDS_P2;PMS_P1;PMS_P2;Temp;Humidity;BMP_temperature;BMP_pressure;BME280_temperature;BME280_humidity;BME280_pressure;Samples;Min_cycle;Max_cycle;Signal;HPM_P1;HPM_P2
2022/09/05 00:00:30;;;;;;;3.20;2.90;;;;;;;18.61;77.85;99088.41;4941659;28;103153;-65
2022/09/05 00:03:14;;;;;;;4.03;3.63;;;;;;;18.60;77.00;99089.41;4940224;28;103558;-65
2022/09/05 00:06:06;;;;;;;3.35;3.05;;;;;;;18.49;78.93;99087.81;4963265;28;103325;-66
2022/09/05 00:08:46;;;;;;;3.50;3.17;;;;;;;18.55;77.72;99083.69;4960748;28;102641;-65
2022/09/05 00:11:21;;;;;;;3.88;3.58;;;;;;;18.12;80.78;99083.50;4967318;28;102981;-65
2022/09/05 00:14:26;;;;;;;3.47;3.17;;;;;;;18.52;78.59;99092.03;4963339;28;103380;-66
2022/09/05 00:17:25;;;;;;;2.80;2.50;;;;;;;18.72;77.16;99090.03;4959852;28;103200;-65
2022/09/05 00:20:21;;;;;;;3.17;2.88;;;;;;;18.79;76.61;99086.59;4964496;28;102611;-65
2022/09/05 00:23:22;;;;;;;3.60;3.30;;;;;;;18.71;76.66;99081.16;4968200;28;102830;-65
2022/09/05 00:26:28;;;;;;;3.40;3.10;;;;;;;18.53;78.18;99085.66;4962406;28;104127;-66
2022/09/05 00:29:11;;;;;;;3.78;3.47;;;;;;;18.25;79.15;99079.47;4961214;28;103182;-65
2022/09/05 00:31:55;;;;;;;3.00;2.70;;;;;;;18.26;79.65;99083.84;4962563;28;103247;-66
2022/09/05 00:34:45;;;;;;;3.78;3.20;;;;;;;18.35;79.19;99074.91;4942147;28;104138;-65
2022/09/05 00:37:27;;;;;;;5.88;3.30;;;;;;;17.56;83.50;99081.78;4951152;28;104126;-65
2022/09/05 00:40:09;;;;;;;3.50;3.20;;;;;;;17.79;81.57;99080.44;4962753;28;103519;-65
2022/09/05 00:42:49;;;;;;;3.60;2.80;;;;;;;18.29;79.57;99080.03;4950260;28;102758;-65
2022/09/05 00:45:27;;;;;;;3.53;3.23;;;;;;;18.06;79.47;99076.06;4969416;28;104899;-65
2022/09/05 00:48:01;;;;;;;4.78;3.95;;;;;;;17.23;83.55;99068.91;4962252;28;103110;-65
2022/09/05 00:50:42;;;;;;;3.60;3.28;;;;;;;17.53;83.79;99075.84;4959490;28;103355;-65
2022/09/05 00:53:20;;;;;;;6.30;3.70;;;;;;;17.84;81.72;99080.81;4964673;28;103061;-65
2022/09/05 00:55:59;;;;;;;2.80;2.60;;;;;;;18.21;79.70;99078.09;4965504;28;102670;-65
2022/09/05 00:58:40;;;;;;;3.60;3.30;;;;;;;18.16;78.30;99074.19;4961852;28;103230;-65
2022/09/05 01:01:26;;;;;;;2.30;2.10;;;;;;;18.35;78.13;99079.41;4961256;28;103802;-65
2022/09/05 01:04:26;;;;;;;2.33;2.13;;;;;;;18.49;76.65;99082.47;4947412;28;102927;-65
2022/09/05 01:07:16;;;;;;;3.22;2.90;;;;;;;18.37;77.55;99088.13;4959974;28;102667;-65
2022/09/05 01:09:56;;;;;;;3.37;3.07;;;;;;;18.28;77.92;99083.66;4965385;28;104918;-65
2022/09/05 01:12:42;;;;;;;3.00;2.80;;;;;;;18.28;77.85;99086.34;4963002;28;103221;-65
2022/09/05 01:15:26;;;;;;;2.93;2.73;;;;;;;18.35;77.06;99090.13;4946208;28;103535;-65
2022/09/05 01:18:31;;;;;;;4.50;3.10;;;;;;;18.31;76.93;99089.56;4958821;28;102685;-65
2022/09/05 01:21:24;;;;;;;5.63;3.60;;;;;;;17.51;81.65;99093.84;4954482;28;103215;-65
2022/09/05 01:24:07;;;;;;;5.00;3.55;;;;;;;17.54;81.06;99083.75;4961423;28;103166;-66
2022/09/05 01:26:56;;;;;;;4.22;3.17;;;;;;;17.36;82.81;99080.09;4960247;28;103003;-65
2022/09/05 01:29:34;;;;;;;7.07;4.43;;;;;;;16.70;86.59;99077.34;4966420;28;102872;-65
2022/09/05 01:32:22;;;;;;;5.15;3.78;;;;;;;16.79;87.10;99076.53;4960251;28;103286;-65
2022/09/05 01:35:36;;;;;;;3.90;3.50;;;;;;;16.94;85.47;99065.41;4971807;28;103293;-66
2022/09/05 01:38:11;;;;;;;4.47;4.00;;;;;;;16.64;86.74;99064.59;4969597;28;102917;-65
2022/09/05 01:40:47;;;;;;;3.70;3.05;;;;;;;17.28;84.49;99072.81;4964446;28;104053;-65
2022/09/05 01:44:09;;;;;;;3.67;3.33;;;;;;;17.19;82.61;99068.34;4964027;28;103016;-65
2022/09/05 01:46:49;;;;;;;4.70;4.30;;;;;;;16.70;86.74;99066.69;4970499;28;102961;-65
2022/09/05 01:49:24;;;;;;;3.40;3.10;;;;;;;16.77;88.14;99057.16;4956675;28;103384;-65
2022/09/05 01:52:16;;;;;;;5.72;4.60;;;;;;;15.84;92.68;99057.66;4972279;28;103924;-65
2022/09/05 01:54:56;;;;;;;4.72;4.00;;;;;;;16.39;91.33;99062.44;4966730;28;103363;-65
2022/09/05 01:57:34;;;;;;;4.43;3.80;;;;;;;16.90;87.14;99061.38;4966364;28;103203;-65
2022/09/05 02:00:07;;;;;;;4.30;3.90;;;;;;;16.68;86.50;99055.31;4961379;28;102713;-65
2022/09/05 02:02:53;;;;;;;4.03;3.50;;;;;;;17.12;85.39;99061.06;4962625;28;102715;-65
2022/09/05 02:05:37;;;;;;;5.53;4.10;;;;;;;16.92;85.74;99060.25;4965863;28;103238;-65
2022/09/05 02:08:49;;;;;;;4.28;3.50;;;;;;;16.73;86.24;99055.72;4946985;28;103173;-65
2022/09/05 02:11:17;;;;;;;4.47;3.70;;;;;;;16.98;85.12;99064.16;4942559;28;102814;-65
2022/09/05 02:14:18;;;;;;;3.13;2.87;;;;;;;17.39;82.96;99069.13;4960663;28;103320;-65
2022/09/05 02:17:14;;;;;;;4.22;3.83;;;;;;;17.10;84.02;99058.50;4962654;28;103220;-65
2022/09/05 02:20:12;;;;;;;3.00;2.70;;;;;;;17.38;82.58;99056.75;4964437;28;103239;-65
2022/09/05 02:23:03;;;;;;;3.60;3.30;;;;;;;17.40;81.73;99060.97;4955603;28;103227;-65
2022/09/05 02:25:58;;;;;;;4.40;3.63;;;;;;;17.21;82.57;99062.84;4964580;28;104097;-65
2022/09/05 02:28:41;;;;;;;3.50;3.20;;;;;;;17.09;83.50;99050.66;4971626;28;103327;-65
2022/09/05 02:31:16;;;;;;;4.50;3.70;;;;;;;16.82;84.80;99054.06;4963703;28;103347;-66
2022/09/05 02:33:55;;;;;;;5.03;4.22;;;;;;;16.47;88.72;99054.59;4968476;28;102709;-65
2022/09/05 02:36:37;;;;;;;3.60;3.30;;;;;;;16.82;85.66;99048.72;4966861;28;103065;-66
2022/09/05 02:39:13;;;;;;;3.80;3.40;;;;;;;17.08;83.02;99054.31;4966624;28;103205;-65
2022/09/05 02:42:09;;;;;;;5.50;3.70;;;;;;;16.94;84.49;99039.59;4960943;28;103505;-65
2022/09/05 02:45:08;;;;;;;4.10;3.80;;;;;;;16.88;85.15;99047.31;4967634;28;102957;-65
2022/09/05 02:48:01;;;;;;;3.60;3.25;;;;;;;17.09;83.47;99050.66;4962146;28;103922;-65
2022/09/05 02:50:49;;;;;;;2.47;2.28;;;;;;;17.32;81.87;99047.50;4963537;28;103979;-65
2022/09/05 02:53:42;;;;;;;3.30;3.00;;;;;;;17.34;81.16;99053.56;4965820;28;103011;-65
2022/09/05 02:56:41;;;;;;;2.70;2.50;;;;;;;17.50;79.92;99055.59;4965505;28;103827;-65
2022/09/05 02:59:45;;;;;;;2.90;2.20;;;;;;;17.55;79.25;99053.38;4944328;28;102776;-65
2022/09/05 03:02:23;;;;;;;3.40;3.00;;;;;;;17.47;78.33;99050.56;4968649;28;103223;-65
2022/09/05 03:05:04;;;;;;;3.22;2.80;;;;;;;17.20;80.16;99053.16;4963350;28;103304;-65
2022/09/05 03:08:00;;;;;;;3.17;2.88;;;;;;;16.95;81.88;99049.28;4962471;28;102604;-65
2022/09/05 03:11:03;;;;;;;4.63;3.40;;;;;;;16.91;81.98;99050.53;4966378;28;102682;-65
2022/09/05 03:13:57;;;;;;;3.20;2.90;;;;;;;17.15;80.34;99050.09;4941276;28;104274;-65
2022/09/05 03:17:10;;;;;;;4.00;3.60;;;;;;;16.95;80.96;99051.94;4945685;28;104025;-65
2022/09/05 03:20:07;;;;;;;3.30;3.00;;;;;;;16.84;82.58;99051.25;4943557;28;103046;-65
2022/09/05 03:23:02;;;;;;;4.57;3.70;;;;;;;16.70;83.42;99052.53;4943709;28;104111;-65
2022/09/05 03:26:08;;;;;;;6.85;4.28;;;;;;;16.23;87.08;99041.63;4947172;28;103846;-65
2022/09/05 03:29:22;;;;;;;3.95;3.55;;;;;;;16.53;86.54;99043.38;4969096;28;104451;-65
2022/09/05 03:32:15;;;;;;;3.97;3.60;;;;;;;16.76;84.59;99044.78;4920396;28;102821;-65
2022/09/05 03:35:08;;;;;;;6.28;4.50;;;;;;;16.44;86.02;99043.34;4962002;28;102778;-65
2022/09/05 03:37:57;;;;;;;6.60;4.80;;;;;;;16.22;88.86;99044.47;4968767;28;103328;-65
2022/09/05 03:40:53;;;;;;;4.40;3.97;;;;;;;16.48;88.19;99048.25;4948668;28;104007;-65
2022/09/05 03:43:45;;;;;;;3.10;2.80;;;;;;;16.91;84.81;99049.69;4962180;28;103060;-65
2022/09/05 03:46:34;;;;;;;4.00;3.22;;;;;;;17.12;82.95;99050.38;4959424;28;102631;-65
2022/09/05 03:49:26;;;;;;;6.63;4.40;;;;;;;16.77;83.60;99056.31;4965666;28;103975;-65
2022/09/05 03:53:28;;;;;;;4.15;3.10;;;;;;;17.01;83.39;99047.88;5126005;27;102591;-75
2022/09/05 03:57:03;;;;;;;5.07;4.47;;;;;;;16.82;82.67;99054.06;5084401;27;103016;-76
2022/09/05 04:00:07;;;;;;;4.32;3.92;;;;;;;16.77;83.95;99061.63;5101473;27;103162;-75
2022/09/05 04:02:43;;;;;;;5.97;4.80;;;;;;;16.38;85.05;99051.91;5101031;27;103328;-77
2022/09/05 04:05:35;;;;;;;4.30;3.90;;;;;;;16.50;86.46;99056.13;5086728;27;102691;-76
2022/09/05 04:08:34;;;;;;;4.00;3.70;;;;;;;16.66;86.26;99054.63;5088950;27;102705;-76
2022/09/05 04:11:14;;;;;;;2.83;2.63;;;;;;;16.99;83.73;99055.16;5105701;27;102941;-75
2022/09/05 04:13:49;;;;;;;3.90;3.22;;;;;;;17.04;82.68;99052.94;5104344;27;103090;-76
2022/09/05 04:16:21;;;;;;;5.95;3.72;;;;;;;16.98;82.48;99053.50;5104517;27;102875;-75
2022/09/05 04:18:53;;;;;;;3.13;2.90;;;;;;;17.12;82.02;99061.06;5102024;27;102971;-76
2022/09/05 04:21:26;;;;;;;3.88;3.53;;;;;;;17.18;81.71;99052.44;5103029;27;103159;-76
2022/09/05 04:24:05;;;;;;;3.45;3.15;;;;;;;17.25;81.15;99057.09;5105394;27;102984;-75
2022/09/05 04:26:53;;;;;;;5.30;4.10;;;;;;;16.85;82.06;99059.09;5104970;27;102915;-76
2022/09/05 04:29:30;;;;;;;3.95;3.55;;;;;;;16.79;84.30;99071.19;5103409;27;103982;-76
2022/09/05 04:32:13;;;;;;;4.27;3.87;;;;;;;16.83;84.50;99065.56;5083522;27;103659;-76
2022/09/05 04:35:04;;;;;;;4.05;3.65;;;;;;;16.81;84.98;99063.88;5102965;27;103105;-82
2022/09/05 04:37:40;;;;;;;5.80;4.43;;;;;;;16.39;86.36;99062.44;5087542;27;103749;-76
2022/09/05 04:40:39;;;;;;;5.20;4.60;;;;;;;16.17;89.58;99057.34;5102632;27;102626;-75
2022/09/05 04:43:14;;;;;;;4.77;4.30;;;;;;;16.53;88.43;99058.53;5100700;27;103283;-76
2022/09/05 04:45:47;;;;;;;4.22;3.83;;;;;;;16.87;86.13;99064.31;5100388;27;103118;-75
2022/09/05 04:48:24;;;;;;;4.03;3.72;;;;;;;17.06;84.87;99061.63;5103329;27;102891;-75
2022/09/05 04:51:04;;;;;;;3.13;2.83;;;;;;;17.18;83.02;99065.78;5089041;27;102960;-75
2022/09/05 04:53:58;;;;;;;2.90;2.70;;;;;;;17.27;82.59;99071.13;5100556;27;104176;-75
2022/09/05 04:56:33;;;;;;;4.53;4.13;;;;;;;17.08;83.64;99073.84;5083301;27;103566;-75
2022/09/05 04:59:07;;;;;;;4.57;3.83;;;;;;;16.95;84.25;99081.31;5083385;27;102878;-75
2022/09/05 05:02:01;;;;;;;4.63;3.77;;;;;;;17.02;84.71;99081.56;5105946;27;102857;-75
2022/09/05 05:05:00;;;;;;;5.10;4.60;;;;;;;16.77;86.86;99078.50;5086491;27;103508;-75
2022/09/05 05:07:56;;;;;;;5.13;4.63;;;;;;;16.72;88.15;99082.56;5089450;27;103098;-76
2022/09/05 05:10:31;;;;;;;3.33;3.03;;;;;;;17.17;85.74;99090.81;5071008;27;102652;-74
2022/09/05 05:13:25;;;;;;;5.63;4.85;;;;;;;16.98;86.29;99086.34;5092893;27;103727;-74
2022/09/05 05:16:19;;;;;;;6.00;5.00;;;;;;;16.81;88.38;99085.22;5089252;27;103312;-74
2022/09/05 05:19:13;;;;;;;3.53;3.23;;;;;;;17.31;85.63;99091.22;5086278;27;103827;-74
2022/09/05 05:21:51;;;;;;;3.83;3.43;;;;;;;17.53;84.22;99099.88;5089736;27;103245;-77
2022/09/05 05:24:23;;;;;;;3.50;3.20;;;;;;;17.74;82.87;99093.38;5089174;27;102978;-78
2022/09/05 05:26:55;;;;;;;4.65;3.50;;;;;;;17.80;82.29;99095.44;5087188;27;104219;-78
2022/09/05 05:29:34;;;;;;;5.03;4.00;;;;;;;17.82;82.31;99098.81;5070967;27;103236;-76
2022/09/05 05:32:06;;;;;;;3.70;3.30;;;;;;;17.80;83.06;99095.44;5073340;27;103006;-78
2022/09/05 05:34:36;;;;;;;3.90;3.50;;;;;;;17.81;82.73;99094.47;5093220;27;103883;-76
2022/09/05 05:37:11;;;;;;;3.50;3.20;;;;;;;17.75;82.99;99097.72;5088926;27;103558;-78
2022/09/05 05:39:44;;;;;;;5.18;4.68;;;;;;;17.78;82.16;99100.13;5088135;27;103265;-78
2022/09/05 05:42:15;;;;;;;3.60;3.27;;;;;;;17.98;81.27;99102.69;5092712;27;103243;-76
2022/09/05 05:44:51;;;;;;;4.45;3.42;;;;;;;17.90;81.87;99106.97;5069371;27;102978;-77
2022/09/05 05:47:24;;;;;;;4.05;3.65;;;;;;;18.08;81.19;99109.69;5092585;27;105014;-77
2022/09/05 05:50:04;;;;;;;2.70;2.50;;;;;;;18.24;80.54;99098.34;5089909;27;102443;-77
2022/09/05 05:52:56;;;;;;;4.95;4.20;;;;;;;18.13;81.24;99111.94;5079783;27;102961;-77
2022/09/05 05:55:44;;;;;;;4.38;3.40;;;;;;;18.26;80.94;99112.41;5090718;27;102607;-77
2022/09/05 05:58:45;;;;;;;3.63;3.33;;;;;;;18.46;79.77;99108.63;5073105;27;103198;-76
2022/09/05 06:01:51;;;;;;;4.72;3.70;;;;;;;18.45;79.85;99101.59;5085278;27;103767;-76
2022/09/05 06:05:02;;;;;;;4.87;3.47;;;;;;;18.70;78.58;99111.59;5086702;27;103084;-77
2022/09/05 06:07:43;;;;;;;3.65;3.30;;;;;;;18.82;78.04;99115.72;5089375;27;103110;-78
2022/09/05 06:11:03;;;;;;;4.30;3.90;;;;;;;18.88;77.91;99112.44;5086644;27;103282;-77
2022/09/05 06:14:15;;;;;;;4.00;3.70;;;;;;;18.94;77.75;99114.50;5087350;27;103217;-78
2022/09/05 06:17:34;;;;;;;3.50;3.20;;;;;;;19.03;77.96;99118.94;5085683;27;102920;-77
2022/09/05 06:20:36;;;;;;;3.15;2.85;;;;;;;19.24;77.15;99120.44;5073443;27;102660;-77
2022/09/05 06:24:03;;;;;;;3.80;3.45;;;;;;;19.34;76.98;99121.22;5087338;27;103228;-77
2022/09/05 06:26:57;;;;;;;5.43;4.20;;;;;;;19.16;77.37;99123.06;5062573;27;103409;-79
2022/09/05 06:29:40;;;;;;;4.40;3.87;;;;;;;19.21;77.27;99131.47;5091006;27;103079;-79
2022/09/05 06:32:34;;;;;;;5.28;3.78;;;;;;;19.39;76.59;99129.66;5099347;27;103021;-77
2022/09/05 06:35:22;;;;;;;7.00;4.65;;;;;;;19.14;77.80;99122.38;5086571;27;103554;-77
2022/09/05 06:38:04;;;;;;;7.25;4.45;;;;;;;19.25;77.47;99127.50;5092867;27;103199;-77
2022/09/05 06:40:39;;;;;;;4.70;4.30;;;;;;;19.41;77.03;99133.84;5088983;27;103644;-78
2022/09/05 06:43:31;;;;;;;4.57;4.13;;;;;;;19.34;76.45;99127.38;5075383;27;102630;-77
2022/09/05 06:46:11;;;;;;;6.05;4.18;;;;;;;19.53;76.69;99126.41;5073289;27;103282;-77
2022/09/05 06:48:49;;;;;;;6.07;4.22;;;;;;;19.54;76.53;99133.41;5088984;27;103239;-76
2022/09/05 06:51:57;;;;;;;5.65;4.03;;;;;;;19.78;75.54;99125.56;5083387;27;103787;-77
2022/09/05 06:55:19;;;;;;;6.32;4.10;;;;;;;19.74;75.20;99134.91;5086234;27;103400;-77
2022/09/05 06:58:40;;;;;;;6.15;4.00;;;;;;;19.76;75.69;99135.56;5086191;27;103155;-77
2022/09/05 07:01:09;;;;;;;5.13;3.78;;;;;;;19.88;74.79;99131.63;5067261;27;103144;-78
2022/09/05 07:03:59;;;;;;;7.20;4.45;;;;;;;19.95;74.63;99130.00;5086221;27;102572;-82
2022/09/05 07:07:05;;;;;;;7.05;3.88;;;;;;;20.40;73.37;99128.88;5084750;27;102784;-75
2022/09/05 07:09:56;;;;;;;4.18;3.78;;;;;;;20.67;72.30;99123.25;5065324;27;103887;-77
2022/09/05 07:12:28;;;;;;;5.68;4.10;;;;;;;20.85;71.98;99126.66;5082568;27;103192;-77
2022/09/05 07:15:11;;;;;;;5.53;4.20;;;;;;;20.64;71.83;99123.59;5069056;27;103115;-78
2022/09/05 07:17:49;;;;;;;10.57;5.05;;;;;;;20.87;71.62;99129.16;5085237;27;103731;-77
2022/09/05 07:20:47;;;;;;;8.65;4.95;;;;;;;20.78;71.59;99120.25;5086816;27;103204;-77
2022/09/05 07:23:47;;;;;;;6.55;4.80;;;;;;;20.84;71.11;99122.28;5059762;27;102970;-78
2022/09/05 07:26:39;;;;;;;6.20;4.65;;;;;;;21.43;69.72;99131.06;5066032;27;102967;-77
2022/09/05 07:29:28;;;;;;;6.15;4.57;;;;;;;21.73;68.81;99127.66;5072498;27;104394;-78
2022/09/05 07:31:58;;;;;;;7.40;4.43;;;;;;;21.84;68.03;99127.28;5069257;27;103452;-78
2022/09/05 07:34:29;;;;;;;6.00;3.88;;;;;;;21.70;68.72;99125.31;5088500;27;103224;-77
2022/09/05 07:37:04;;;;;;;7.82;3.75;;;;;;;21.93;67.51;99120.94;5072136;27;102743;-77
2022/09/05 07:39:51;;;;;;;5.63;4.07;;;;;;;21.91;67.60;99109.50;5083671;27;104893;-78
2022/09/05 07:42:26;;;;;;;5.22;3.70;;;;;;;21.98;66.86;99115.06;5066930;27;103798;-77
2022/09/05 07:44:56;;;;;;;4.72;3.20;;;;;;;22.76;64.87;99115.88;5089475;27;102761;-76
2022/09/05 07:47:29;;;;;;;4.80;3.55;;;;;;;23.35;63.42;99116.94;5067907;27;102986;-78
2022/09/05 07:50:03;;;;;;;7.65;3.13;;;;;;;23.81;62.78;99117.69;5068742;27;103617;-79
2022/09/05 07:52:56;;;;;;;4.65;3.10;;;;;;;24.26;60.72;99101.34;5083484;27;103437;-78
2022/09/05 07:55:50;;;;;;;4.70;3.13;;;;;;;24.15;62.41;99107.22;5086945;27;103546;-76
2022/09/05 07:58:42;;;;;;;3.22;2.30;;;;;;;24.92;60.08;99118.38;5085214;27;103208;-78
2022/09/05 08:01:13;;;;;;;2.83;2.35;;;;;;;25.56;58.43;99109.22;5087799;27;102888;-77
2022/09/05 08:03:43;;;;;;;5.28;2.63;;;;;;;25.65;57.43;99116.16;5087700;27;103903;-79
2022/09/05 08:06:21;;;;;;;5.10;2.83;;;;;;;26.16;55.88;99113.19;5088852;27;103606;-77
2022/09/05 08:09:16;;;;;;;4.40;2.78;;;;;;;26.39;55.41;99119.94;5085586;27;103094;-77
2022/09/05 08:12:10;;;;;;;4.73;3.00;;;;;;;26.41;56.23;99117.06;5071009;27;103193;-77
2022/09/05 08:14:44;;;;;;;6.40;3.10;;;;;;;26.43;54.01;99121.22;5092245;27;103255;-78
2022/09/05 08:17:17;;;;;;;5.40;2.90;;;;;;;26.22;53.75;99123.19;5074140;27;103007;-76
2022/09/05 08:20:07;;;;;;;3.83;2.70;;;;;;;26.68;53.12;99113.41;5087903;27;102723;-79
2022/09/05 08:22:48;;;;;;;4.87;2.70;;;;;;;27.06;53.01;99119.13;5088713;27;103852;-77
2022/09/05 08:25:29;;;;;;;5.80;2.75;;;;;;;27.41;51.78;99109.00;5095449;27;103686;-73
2022/09/05 08:28:20;;;;;;;7.82;2.63;;;;;;;27.39;51.12;99111.91;5073590;27;103180;-74
2022/09/05 08:30:58;;;;;;;3.97;2.72;;;;;;;27.37;51.69;99107.72;5089892;27;103984;-73
2022/09/05 08:33:32;;;;;;;2.80;2.50;;;;;;;27.74;50.76;99106.25;5085929;27;103986;-73
2022/09/05 08:36:05;;;;;;;3.03;2.35;;;;;;;28.01;50.30;99106.03;5087519;27;103177;-74
2022/09/05 08:38:35;;;;;;;4.93;2.15;;;;;;;28.48;48.75;99107.56;5088549;27;103249;-73
2022/09/05 08:41:17;;;;;;;4.55;2.30;;;;;;;28.35;49.97;99104.06;5089690;27;102841;-74
2022/09/05 08:44:00;;;;;;;5.07;2.33;;;;;;;28.78;48.25;99099.72;5090103;27;103495;-72
2022/09/05 08:46:52;;;;;;;2.83;2.13;;;;;;;28.60;49.65;99088.69;5088848;27;103592;-72
2022/09/05 08:49:44;;;;;;;4.70;2.53;;;;;;;29.00;47.96;99106.47;5078237;27;103741;-74
2022/09/05 08:52:17;;;;;;;5.95;2.42;;;;;;;28.80;47.52;99105.75;5088777;27;102850;-74
2022/09/05 08:54:56;;;;;;;3.50;2.27;;;;;;;29.53;48.00;99097.97;5095285;27;103343;-73
2022/09/05 08:58:05;;;;;;;2.72;2.00;;;;;;;30.06;46.84;99096.44;5091358;27;103240;-74
2022/09/05 09:00:43;;;;;;;3.27;2.23;;;;;;;29.81;47.32;99098.38;5077854;27;103128;-75
2022/09/05 09:03:32;;;;;;;2.97;2.00;;;;;;;30.13;44.65;99096.34;5070482;27;102940;-74
2022/09/05 09:06:30;;;;;;;3.40;2.30;;;;;;;28.95;46.33;99103.59;5091635;27;103720;-73
2022/09/05 09:09:18;;;;;;;2.53;2.03;;;;;;;30.26;45.92;99096.19;5087461;27;102588;-74
2022/09/05 09:11:54;;;;;;;1.80;1.70;;;;;;;30.75;44.00;99089.72;5089190;27;103117;-72
2022/09/05 09:14:38;;;;;;;3.20;1.80;;;;;;;29.77;46.02;99094.38;5089143;27;102588;-73
2022/09/05 09:17:21;;;;;;;2.10;1.90;;;;;;;30.11;43.99;99087.56;5072799;27;104233;-74
2022/09/05 09:20:09;;;;;;;3.33;1.80;;;;;;;30.40;44.87;99090.38;5089430;27;102951;-75
2022/09/05 09:22:41;;;;;;;2.20;2.00;;;;;;;30.59;43.58;99084.91;5087344;27;103635;-74
2022/09/05 09:25:15;;;;;;;4.30;1.88;;;;;;;31.63;42.49;99081.69;5089751;27;102910;-74
2022/09/05 09:28:05;;;;;;;2.20;2.00;;;;;;;31.35;43.66;99083.19;5070241;27;104000;-73
2022/09/05 09:30:59;;;;;;;3.20;2.20;;;;;;;31.34;42.10;99081.50;5071070;27;104048;-73
2022/09/05 09:33:37;;;;;;;3.80;2.17;;;;;;;30.78;43.27;99072.91;5083697;27;103383;-73
2022/09/05 09:36:19;;;;;;;3.15;2.10;;;;;;;31.18;42.13;99074.00;5088248;27;102836;-73
2022/09/05 09:39:06;;;;;;;3.20;1.93;;;;;;;31.44;42.10;99076.28;5088665;27;102902;-72
2022/09/05 09:42:13;;;;;;;3.03;1.90;;;;;;;31.39;41.32;99069.88;5083916;27;103314;-73
2022/09/05 09:45:52;;;;;;;2.60;2.10;;;;;;;31.49;41.17;99075.63;5086152;27;103248;-73
2022/09/05 09:49:01;;;;;;;3.10;2.00;;;;;;;31.16;42.43;99067.13;5022441;27;104250;-74
2022/09/05 09:51:51;;;;;;;2.10;1.73;;;;;;;31.82;40.37;99066.81;5083232;27;103024;-73
2022/09/05 09:54:55;;;;;;;3.42;1.98;;;;;;;31.42;40.67;99056.59;5071054;27;104243;-73
2022/09/05 09:57:56;;;;;;;3.10;2.00;;;;;;;32.28;39.68;99058.59;5062936;27;103687;-74
2022/09/05 10:00:28;;;;;;;3.75;2.28;;;;;;;29.83;42.69;99058.97;5067357;27;102872;-73
2022/09/05 10:03:36;;;;;;;4.83;2.17;;;;;;;31.20;41.40;99052.75;5085656;27;102716;-73
2022/09/05 10:07:18;;;;;;;2.40;1.88;;;;;;;31.44;41.35;99057.16;5086722;27;104132;-73
2022/09/05 10:10:34;;;;;;;2.78;2.03;;;;;;;30.75;41.69;99054.25;5086772;27;103272;-74
2022/09/05 10:13:30;;;;;;;5.13;2.10;;;;;;;31.42;40.44;99053.84;5088118;27;102793;-73
2022/09/05 10:16:40;;;;;;;2.72;2.03;;;;;;;31.87;41.53;99061.47;5072958;27;102695;-74
2022/09/05 10:19:43;;;;;;;2.75;1.90;;;;;;;31.90;40.00;99055.53;5047453;27;103454;-74
2022/09/05 10:22:56;;;;;;;3.00;1.90;;;;;;;30.64;40.65;99050.44;5079585;27;103862;-75
2022/09/05 10:25:44;;;;;;;1.98;1.63;;;;;;;30.19;40.68;99055.41;5084732;27;104567;-74
2022/09/05 10:28:24;;;;;;;2.60;1.83;;;;;;;30.05;41.62;99050.31;5074313;27;103656;-74
2022/09/05 10:31:03;;;;;;;4.88;1.80;;;;;;;30.92;41.45;99047.97;5082358;27;104154;-73
2022/09/05 10:33:58;;;;;;;1.90;1.70;;;;;;;32.19;40.13;99040.91;5074252;27;103465;-74
2022/09/05 10:36:51;;;;;;;2.90;2.15;;;;;;;31.35;39.21;99038.66;5085311;27;102971;-73
2022/09/05 10:39:23;;;;;;;2.72;2.00;;;;;;;31.25;38.95;99036.50;5080983;27;104097;-73
2022/09/05 10:41:57;;;;;;;2.00;1.63;;;;;;;31.60;39.68;99025.66;5077034;27;103476;-73
2022/09/05 10:44:39;;;;;;;2.10;1.90;;;;;;;32.35;38.50;99012.81;5078349;27;103174;-74
2022/09/05 10:47:18;;;;;;;2.28;2.08;;;;;;;30.27;40.30;99014.22;5066932;27;103124;-80
2022/09/05 10:49:49;;;;;;;2.20;1.60;;;;;;;31.57;37.58;99001.53;5079058;27;103859;-81
2022/09/05 10:52:27;;;;;;;2.65;1.92;;;;;;;31.87;36.75;99001.38;5081502;27;103581;-81
2022/09/05 10:55:17;;;;;;;1.90;1.70;;;;;;;32.35;36.50;98999.16;5082304;27;102936;-79
2022/09/05 10:57:59;;;;;;;1.75;1.33;;;;;;;32.56;34.65;98998.47;5086375;27;103204;-80
2022/09/05 11:00:56;;;;;;;1.60;1.50;;;;;;;31.24;37.49;98991.19;5070848;27;104505;-80
2022/09/05 11:03:50;;;;;;;2.40;1.70;;;;;;;31.70;36.41;98995.00;5070115;27;103166;-79
2022/09/05 11:06:24;;;;;;;2.38;1.70;;;;;;;32.29;36.23;98991.91;5086502;27;103149;-79
2022/09/05 11:09:06;;;;;;;2.13;1.85;;;;;;;32.44;37.14;98992.22;5068019;27;103534;-80
2022/09/05 11:11:44;;;;;;;1.63;1.50;;;;;;;31.92;36.51;98996.03;5068436;27;103102;-79
2022/09/05 11:14:35;;;;;;;2.20;1.60;;;;;;;31.97;36.48;99002.41;5087841;27;103237;-78
2022/09/05 11:17:12;;;;;;;2.42;1.83;;;;;;;32.52;34.31;98986.34;5070430;27;103137;-79
2022/09/05 11:19:44;;;;;;;1.88;1.50;;;;;;;33.07;33.30;98980.25;5085677;27;103305;-80
2022/09/05 11:22:14;;;;;;;1.98;1.67;;;;;;;33.34;33.17;98970.28;5086981;27;104011;-80
2022/09/05 11:24:55;;;;;;;2.15;1.50;;;;;;;33.26;33.23;98974.25;5086623;27;103252;-80
2022/09/05 11:27:31;;;;;;;2.20;1.50;;;;;;;33.96;32.98;98973.66;5085743;27;103569;-80
2022/09/05 11:30:05;;;;;;;1.80;1.52;;;;;;;34.06;32.46;98981.16;5086126;27;102823;-77
2022/09/05 11:33:21;;;;;;;2.07;1.73;;;;;;;33.01;33.63;98967.56;5073532;27;102611;-79
2022/09/05 11:36:16;;;;;;;2.72;1.50;;;;;;;33.54;32.09;98965.13;5028520;27;103375;-77
2022/09/05 11:39:13;;;;;;;2.05;1.55;;;;;;;33.52;32.61;98963.69;5042823;27;103385;-79
2022/09/05 11:42:33;;;;;;;2.20;1.60;;;;;;;33.93;32.12;98960.47;5079754;27;103360;-80
2022/09/05 11:45:34;;;;;;;1.83;1.65;;;;;;;31.46;33.32;98964.97;5086489;27;104564;-77
2022/09/05 11:48:47;;;;;;;1.77;1.52;;;;;;;33.15;33.14;98960.69;5085240;27;103366;-79
2022/09/05 11:52:11;;;;;;;2.35;1.48;;;;;;;34.13;31.13;98968.13;5042695;27;103117;-81
2022/09/05 11:55:07;;;;;;;2.97;1.58;;;;;;;33.08;31.04;98965.50;5087398;27;102695;-80
2022/09/05 11:58:03;;;;;;;1.65;1.40;;;;;;;32.69;32.41;98956.34;5064867;27;102885;-80
2022/09/05 12:01:05;;;;;;;1.63;1.50;;;;;;;32.27;31.73;98953.06;5068561;27;103227;-79
2022/09/05 12:04:13;;;;;;;1.80;1.70;;;;;;;32.09;32.34;98953.25;5083991;27;103197;-72
2022/09/05 12:07:07;;;;;;;2.17;1.70;;;;;;;33.45;30.83;98950.19;5083989;27;103128;-74
2022/09/05 12:10:10;;;;;;;2.17;1.77;;;;;;;33.77;32.27;98953.94;5071575;27;102760;-74
2022/09/05 12:13:30;;;;;;;2.40;1.70;;;;;;;32.92;32.41;98949.88;5067025;27;103971;-73
2022/09/05 12:16:00;;;;;;;2.17;1.70;;;;;;;32.17;33.06;98936.44;5073956;27;103184;-73
2022/09/05 12:18:47;;;;;;;2.25;2.00;;;;;;;32.86;32.58;98937.19;5085865;27;103858;-74
2022/09/05 12:21:26;;;;;;;1.33;1.23;;;;;;;34.36;31.58;98934.91;5071022;27;102994;-74
2022/09/05 12:23:59;;;;;;;3.05;1.80;;;;;;;34.60;31.48;98936.31;5070818;27;104023;-72
2022/09/05 12:26:55;;;;;;;1.73;1.63;;;;;;;34.37;32.17;98936.59;5080295;27;104410;-73
2022/09/05 12:29:50;;;;;;;2.45;1.90;;;;;;;33.87;32.69;98928.59;5076536;27;102665;-73
2022/09/05 12:32:25;;;;;;;1.60;1.50;;;;;;;34.39;31.71;98929.75;5090531;27;103146;-73
2022/09/05 12:35:22;;;;;;;2.05;1.70;;;;;;;34.64;32.08;98918.22;5069410;27;103421;-73
2022/09/05 12:38:25;;;;;;;2.10;1.77;;;;;;;34.26;31.76;98921.13;5091853;27;102862;-73
2022/09/05 12:41:19;;;;;;;2.53;1.70;;;;;;;34.23;31.56;98916.16;5086287;27;103165;-72
2022/09/05 12:44:24;;;;;;;1.90;1.60;;;;;;;34.38;31.56;98908.09;5089523;27;104368;-73
2022/09/05 12:47:12;;;;;;;2.17;1.70;;;;;;;33.62;32.03;98912.69;5089838;27;103545;-73
2022/09/05 12:49:58;;;;;;;3.17;1.80;;;;;;;34.47;32.22;98906.53;5092000;27;103287;-73
2022/09/05 12:52:41;;;;;;;2.07;1.93;;;;;;;34.37;31.90;98903.69;5088187;27;102891;-73
2022/09/05 12:55:19;;;;;;;2.03;1.70;;;;;;;34.40;31.48;98903.16;5093382;27;103842;-73
2022/09/05 12:57:53;;;;;;;2.50;1.77;;;;;;;34.03;32.24;98897.53;5088327;27;103153;-73
2022/09/05 13:00:44;;;;;;;2.38;1.83;;;;;;;33.96;31.73;98898.84;5085641;27;103100;-73
2022/09/05 13:03:36;;;;;;;4.00;1.85;;;;;;;34.19;31.57;98904.06;5086959;27;103700;-72